Time;durP1;ratioP1;P1;durP2;ratioP2;P2;SDS_P1;SDS_P2;PMS_P1;PMS_P2;Temp;Humidity;BMP_temperature;BMP_pressure;BME280_temperature;BME280_humidity;BME280_pressure;Samples;Min_cycle;Max_cycle;Signal;HPM_P1;HPM_P2
2022/04/12 00:01:39;;;;;;;6.03;4.23;;;11.50;99.90;;;;;;5053125;28;20173;-63
2022/04/12 00:04:05;;;;;;;7.03;4.40;;;11.50;99.90;;;;;;5053021;28;20168;-63
2022/04/12 00:06:31;;;;;;;4.63;4.00;;;11.50;6.40;;;;;;5052953;28;20636;-64
2022/04/12 00:08:56;;;;;;;19.00;11.30;;;11.60;1.00;;;;;;5052892;28;20176;-64
2022/04/12 00:11:22;;;;;;;12.67;9.03;;;11.80;99.90;;;;;;5052413;28;20169;-63
2022/04/12 00:13:48;;;;;;;29.77;19.03;;;11.80;99.90;;;;;;5052930;28;20209;-64
2022/04/12 00:16:14;;;;;;;9.50;6.60;;;11.80;1.00;;;;;;5053058;28;20201;-63
2022/04/12 00:21:23;;;;;;;6.10;3.90;;;11.70;27.30;;;;;;5052921;28;20254;-63
2022/04/12 00:23:49;;;;;;;5.37;3.37;;;11.70;99.90;;;;;;5052613;28;20641;-63
2022/04/12 00:26:15;;;;;;;3.80;3.43;;;11.60;99.90;;;;;;5052365;28;20173;-63
2022/04/12 00:28:41;;;;;;;3.60;3.17;;;11.60;1.00;;;;;;5053038;28;20203;-63
2022/04/12 00:31:08;;;;;;;4.07;3.40;;;11.40;1.00;;;;;;5052866;28;20173;-63
2022/04/12 00:33:33;;;;;;;4.77;3.50;;;11.40;1.00;;;;;;5052693;28;20184;-65
2022/04/12 00:36:00;;;;;;;4.10;3.70;;;11.40;1.00;;;;;;5052576;28;20177;-64
2022/04/12 00:38:27;;;;;;;3.77;3.47;;;11.30;99.90;;;;;;5052556;28;20173;-64
2022/04/12 00:40:54;;;;;;;4.70;3.23;;;11.20;1.00;;;;;;5052552;28;20192;-63
2022/04/12 00:43:21;;;;;;;4.30;3.90;;;11.20;1.00;;;;;;5052654;28;20193;-64
2022/04/12 00:45:47;;;;;;;8.33;3.83;;;11.10;1.00;;;;;;5052490;28;20192;-63
2022/04/12 00:48:13;;;;;;;4.10;3.37;;;11.00;99.90;;;;;;5052535;28;20567;-63
2022/04/12 00:50:41;;;;;;;4.67;4.00;;;11.00;99.90;;;;;;5052533;28;20173;-62
2022/04/12 00:53:10;;;;;;;3.90;3.43;;;10.90;99.90;;;;;;5052465;28;20208;-64
2022/04/12 00:55:36;;;;;;;5.63;3.63;;;11.00;26.80;;;;;;5051840;28;20582;-63
2022/04/12 00:58:06;;;;;;;5.23;4.53;;;11.10;1.00;;;;;;5052572;28;20220;-63
2022/04/12 01:00:35;;;;;;;9.20;5.80;;;11.20;1.00;;;;;;5055797;28;20660;-63
2022/04/12 01:03:02;;;;;;;6.50;4.83;;;11.20;99.90;;;;;;5056275;28;20530;-64
2022/04/12 01:05:28;;;;;;;6.07;4.57;;;11.30;99.90;;;;;;5056007;28;20174;-62
2022/04/12 01:07:55;;;;;;;6.10;5.50;;;11.40;99.90;;;;;;5055974;28;20173;-63
2022/04/12 01:10:22;;;;;;;4.37;3.97;;;11.40;99.90;;;;;;5055884;28;20180;-63
2022/04/12 01:12:52;;;;;;;7.93;4.40;;;11.40;94.70;;;;;;5056060;28;20227;-64
2022/04/12 01:15:23;;;;;;;4.60;4.20;;;11.40;99.90;;;;;;5056120;28;20165;-63
2022/04/12 01:17:49;;;;;;;4.50;3.67;;;11.40;99.90;;;;;;5055920;28;20213;-62
2022/04/12 01:20:18;;;;;;;4.43;3.87;;;11.40;99.90;;;;;;5055844;28;20560;-62
2022/04/12 01:22:51;;;;;;;4.93;3.43;;;11.40;99.90;;;;;;5055771;28;20647;-61
2022/04/12 01:25:18;;;;;;;4.93;3.70;;;11.40;51.30;;;;;;5055418;28;20173;-63
2022/04/12 01:27:44;;;;;;;3.57;3.00;;;11.40;99.90;;;;;;5055986;28;20219;-63
2022/04/12 01:30:11;;;;;;;3.80;3.60;;;11.30;99.90;;;;;;5055854;28;20726;-63
2022/04/12 01:32:36;;;;;;;6.77;3.30;;;11.30;99.90;;;;;;5055578;28;20173;-63
2022/04/12 01:35:02;;;;;;;4.17;3.20;;;11.20;1.00;;;;;;5055574;28;20166;-64
2022/04/12 01:37:28;;;;;;;3.60;3.30;;;11.20;99.90;;;;;;5055343;28;20680;-64
2022/04/12 01:39:53;;;;;;;3.60;3.40;;;11.40;99.90;;;;;;5055372;28;20265;-62
2022/04/12 01:42:19;;;;;;;3.90;3.57;;;11.30;99.90;;;;;;5055576;28;20188;-64
2022/04/12 01:44:45;;;;;;;4.20;3.60;;;11.20;99.90;;;;;;5055289;28;20239;-61
2022/04/12 01:47:10;;;;;;;3.47;3.17;;;11.20;1.00;;;;;;5055314;28;20207;-62
2022/04/12 01:49:36;;;;;;;4.50;3.40;;;11.20;1.00;;;;;;5055620;28;20629;-64
2022/04/12 01:52:03;;;;;;;4.47;3.33;;;11.20;1.00;;;;;;5055347;28;20188;-64
2022/04/12 01:54:29;;;;;;;5.00;4.20;;;11.20;1.00;;;;;;5053574;28;20270;-64
2022/04/12 01:56:54;;;;;;;4.23;3.60;;;11.10;1.00;;;;;;5055010;28;20264;-63
2022/04/12 01:59:20;;;;;;;4.07;3.67;;;11.10;24.80;;;;;;5055253;28;20200;-63
2022/04/12 02:01:46;;;;;;;4.13;3.63;;;11.00;99.90;;;;;;5055014;28;20185;-64
2022/04/12 02:04:11;;;;;;;4.17;3.63;;;10.90;1.00;;;;;;5055152;28;20169;-63
2022/04/12 02:06:37;;;;;;;4.00;3.60;;;10.70;1.00;;;;;;5054765;28;20178;-64
2022/04/12 02:09:02;;;;;;;4.50;3.93;;;10.80;47.50;;;;;;5054830;28;20177;-63
2022/04/12 02:11:28;;;;;;;4.53;3.73;;;10.70;1.00;;;;;;5054510;28;20216;-63
2022/04/12 02:13:54;;;;;;;6.07;3.53;;;10.60;1.00;;;;;;5054858;28;20169;-62
2022/04/12 02:16:19;;;;;;;3.93;3.47;;;10.60;1.00;;;;;;5054813;28;20193;-64
2022/04/12 02:18:45;;;;;;;3.63;3.33;;;10.70;1.00;;;;;;5054977;28;20157;-63
2022/04/12 02:21:11;;;;;;;5.77;3.33;;;10.60;1.00;;;;;;5054761;28;20173;-63
2022/04/12 02:23:36;;;;;;;4.43;3.67;;;10.60;1.00;;;;;;5054534;28;20180;-63
2022/04/12 02:26:02;;;;;;;6.13;3.93;;;10.60;55.10;;;;;;5054861;28;20181;-63
2022/04/12 02:28:28;;;;;;;3.87;3.57;;;10.60;99.90;;;;;;5054807;28;20637;-63
2022/04/12 02:30:53;;;;;;;6.13;4.20;;;10.50;1.00;;;;;;5054571;28;20181;-63
2022/04/12 02:33:19;;;;;;;5.73;4.00;;;10.50;99.90;;;;;;5054526;28;20235;-63
2022/04/12 02:35:44;;;;;;;5.63;4.00;;;10.40;1.00;;;;;;5054382;28;20166;-62
2022/04/12 02:38:10;;;;;;;4.93;3.90;;;10.30;99.90;;;;;;5054054;28;20698;-63
2022/04/12 02:40:36;;;;;;;6.50;4.13;;;10.30;1.00;;;;;;5054363;28;20180;-63
2022/04/12 02:43:01;;;;;;;4.53;4.13;;;10.00;1.00;;;;;;5054411;28;20172;-62
2022/04/12 02:45:27;;;;;;;5.00;4.03;;;10.00;99.90;;;;;;5054369;28;20709;-63
2022/04/12 02:47:52;;;;;;;4.40;3.93;;;10.00;1.00;;;;;;5054112;28;20177;-62
2022/04/12 02:50:18;;;;;;;6.70;4.13;;;10.00;1.00;;;;;;5053761;28;20259;-65
2022/04/12 02:52:43;;;;;;;4.20;3.80;;;10.10;1.00;;;;;;5054123;28;20203;-63
2022/04/12 02:55:09;;;;;;;4.70;4.27;;;10.20;1.00;;;;;;5053710;28;20173;-63
2022/04/12 02:57:35;;;;;;;5.90;4.20;;;10.30;1.00;;;;;;5054092;28;20205;-63
2022/04/12 03:00:00;;;;;;;4.67;4.17;;;10.30;99.90;;;;;;5053955;28;20170;-63
2022/04/12 03:02:26;;;;;;;5.40;4.37;;;10.20;99.90;;;;;;5053843;28;20260;-63
2022/04/12 03:04:51;;;;;;;7.50;4.23;;;10.00;99.90;;;;;;5053584;28;20281;-63
2022/04/12 03:07:17;;;;;;;4.73;4.10;;;10.00;25.40;;;;;;5054204;28;20177;-64
2022/04/12 03:09:43;;;;;;;4.63;3.93;;;9.90;99.90;;;;;;5054056;28;20227;-63
2022/04/12 03:12:09;;;;;;;6.63;4.23;;;9.90;1.00;;;;;;5053797;28;20176;-64
2022/04/12 03:14:35;;;;;;;5.47;4.33;;;9.80;1.00;;;;;;5053667;28;20165;-63
2022/04/12 03:17:00;;;;;;;11.10;4.50;;;9.80;1.00;;;;;;5053528;28;20613;-64
2022/04/12 03:19:26;;;;;;;7.30;4.50;;;9.80;1.00;;;;;;5053136;28;20169;-62
2022/04/12 03:21:51;;;;;;;7.10;3.67;;;9.80;1.00;;;;;;5052948;28;20628;-63
2022/04/12 03:24:17;;;;;;;7.70;4.10;;;9.80;99.90;;;;;;5053095;28;20169;-62
2022/04/12 03:26:43;;;;;;;6.50;4.13;;;9.80;1.00;;;;;;5053457;28;20629;-62
2022/04/12 03:29:09;;;;;;;5.57;4.10;;;9.80;99.90;;;;;;5053391;28;20227;-63
2022/04/12 03:31:35;;;;;;;7.07;4.20;;;9.80;1.00;;;;;;5053107;28;20655;-63
2022/04/12 03:34:00;;;;;;;6.53;4.50;;;9.80;1.00;;;;;;5052941;28;20179;-62
2022/04/12 03:36:26;;;;;;;8.80;4.40;;;9.70;99.90;;;;;;5053045;28;20209;-64
2022/04/12 03:38:52;;;;;;;7.50;4.60;;;9.80;99.90;;;;;;5053307;28;20714;-63
2022/04/12 03:41:21;;;;;;;5.57;4.23;;;9.80;1.00;;;;;;5052997;28;20188;-63
2022/04/12 03:43:47;;;;;;;9.87;4.60;;;9.70;99.90;;;;;;5053253;28;20197;-63
2022/04/12 03:46:13;;;;;;;9.27;4.80;;;9.60;99.90;;;;;;5053006;28;20224;-63
2022/04/12 03:48:39;;;;;;;3.80;3.40;;;9.70;1.00;;;;;;5052528;28;20181;-62
2022/04/12 03:51:05;;;;;;;9.23;4.70;;;9.70;99.90;;;;;;5053047;28;20633;-62
2022/04/12 03:53:30;;;;;;;13.73;4.80;;;9.80;1.00;;;;;;5052940;28;20710;-63
2022/04/12 03:55:56;;;;;;;12.57;5.43;;;9.80;1.00;;;;;;5052122;28;20758;-63
2022/04/12 03:58:22;;;;;;;10.33;4.97;;;9.60;1.00;;;;;;5052427;28;20220;-62
2022/04/12 04:00:49;;;;;;;13.37;5.23;;;9.60;1.00;;;;;;5052791;28;20199;-62
2022/04/12 04:03:15;;;;;;;9.80;5.07;;;9.60;1.00;;;;;;5052281;28;20629;-63
2022/04/12 04:05:41;;;;;;;9.67;4.87;;;9.50;1.00;;;;;;5053118;28;20239;-63
2022/04/12 04:08:07;;;;;;;10.67;5.03;;;9.50;1.00;;;;;;5052792;28;20169;-63
2022/04/12 04:10:32;;;;;;;12.00;5.13;;;9.50;1.00;;;;;;5052220;28;20227;-63
2022/04/12 04:12:58;;;;;;;16.10;4.97;;;9.50;2.70;;;;;;5052483;28;20184;-63
2022/04/12 04:15:24;;;;;;;8.77;4.37;;;9.50;1.00;;;;;;5052476;28;20283;-62
2022/04/12 04:17:49;;;;;;;13.90;4.80;;;9.50;1.00;;;;;;5052434;28;20217;-63
2022/04/12 04:20:17;;;;;;;10.07;4.83;;;9.40;1.00;;;;;;5052781;28;20201;-62
2022/04/12 04:22:44;;;;;;;14.57;5.67;;;9.40;1.00;;;;;;5052632;28;20205;-63
2022/04/12 04:25:11;;;;;;;10.03;5.07;;;9.50;88.10;;;;;;5052674;28;20180;-63
2022/04/12 04:27:39;;;;;;;8.90;4.90;;;9.50;30.70;;;;;;5052419;28;20200;-61
2022/04/12 04:30:07;;;;;;;12.53;5.43;;;9.50;1.00;;;;;;5052383;28;20641;-61
2022/04/12 04:32:34;;;;;;;15.50;4.73;;;9.40;90.00;;;;;;5052115;28;20165;-63
2022/04/12 04:35:00;;;;;;;14.57;4.70;;;9.30;99.90;;;;;;5054570;28;20524;-63
2022/04/12 04:37:26;;;;;;;11.80;5.40;;;9.30;99.90;;;;;;5056487;28;20197;-63
2022/04/12 04:39:52;;;;;;;13.37;4.90;;;9.30;99.90;;;;;;5056745;28;20197;-63
2022/04/12 04:42:20;;;;;;;13.57;5.17;;;9.30;99.90;;;;;;5056676;28;20197;-63
2022/04/12 04:44:46;;;;;;;11.77;5.30;;;9.30;99.90;;;;;;5056019;28;20200;-63
2022/04/12 04:47:12;;;;;;;14.17;5.43;;;9.30;99.90;;;;;;5055891;28;20180;-64
2022/04/12 04:49:37;;;;;;;14.70;4.87;;;9.30;99.90;;;;;;5056286;28;20173;-63
2022/04/12 04:52:03;;;;;;;9.20;4.70;;;9.20;99.90;;;;;;5055965;28;20220;-62
2022/04/12 04:54:29;;;;;;;9.53;5.80;;;9.20;99.90;;;;;;5055880;28;20648;-64
2022/04/12 04:56:55;;;;;;;17.60;6.83;;;9.10;99.90;;;;;;5055583;28;20228;-64
2022/04/12 04:59:20;;;;;;;10.73;5.50;;;9.20;1.00;;;;;;5055952;28;20177;-65
2022/04/12 05:01:46;;;;;;;12.73;5.60;;;9.20;1.00;;;;;;5055593;28;20235;-63
2022/04/12 05:04:11;;;;;;;15.97;6.13;;;9.20;1.00;;;;;;5055752;28;20169;-63
2022/04/12 05:06:37;;;;;;;13.30;5.80;;;9.20;99.90;;;;;;5055942;28;20200;-63
2022/04/12 05:09:02;;;;;;;14.90;6.17;;;9.20;1.00;;;;;;5055376;28;20540;-63
2022/04/12 05:11:28;;;;;;;17.03;5.70;;;9.40;99.90;;;;;;5055593;28;20230;-63
2022/04/12 05:13:55;;;;;;;15.00;5.90;;;9.50;99.90;;;;;;5055677;28;20185;-64
2022/04/12 05:16:21;;;;;;;16.83;5.80;;;9.80;99.90;;;;;;5054715;28;20632;-63
2022/04/12 05:18:46;;;;;;;12.80;5.90;;;10.00;1.00;;;;;;5055500;28;20227;-63
2022/04/12 05:21:12;;;;;;;12.00;6.23;;;10.10;99.90;;;;;;5055104;28;20176;-65
2022/04/12 05:23:37;;;;;;;15.93;5.90;;;10.40;99.90;;;;;;5055427;28;20173;-63
2022/04/12 05:26:03;;;;;;;23.20;6.40;;;10.60;99.90;;;;;;5054796;28;20180;-63
2022/04/12 05:28:29;;;;;;;13.90;6.10;;;10.60;1.00;;;;;;5055439;28;20173;-64
2022/04/12 05:30:55;;;;;;;21.83;6.17;;;10.60;29.20;;;;;;5055014;28;20529;-64
2022/04/12 05:33:21;;;;;;;14.10;6.17;;;10.50;99.90;;;;;;5055183;28;20176;-64
2022/04/12 05:35:46;;;;;;;15.50;5.97;;;10.40;1.00;;;;;;5055355;28;20177;-62
2022/04/12 05:38:12;;;;;;;14.87;5.50;;;10.50;99.90;;;;;;5055047;28;20201;-63
2022/04/12 05:40:38;;;;;;;15.37;6.07;;;10.80;1.00;;;;;;5054779;28;20172;-64
2022/04/12 05:43:03;;;;;;;18.57;5.90;;;11.00;1.00;;;;;;5054347;28;20662;-62
2022/04/12 05:45:29;;;;;;;20.83;5.97;;;11.20;1.00;;;;;;5053838;28;20170;-65
2022/04/12 05:47:55;;;;;;;25.00;6.30;;;11.60;1.00;;;;;;5054474;28;20629;-64
2022/04/12 05:50:23;;;;;;;15.27;6.17;;;12.20;1.00;;;;;;5055173;28;20173;-63
2022/04/12 05:52:49;;;;;;;15.20;5.77;;;12.60;99.90;;;;;;5054364;28;20212;-64
2022/04/12 05:55:17;;;;;;;14.33;6.33;;;13.10;99.90;;;;;;5054111;28;20566;-63
2022/04/12 05:57:54;;;;;;;20.17;6.10;;;13.50;1.00;;;;;;5054668;28;20208;-64
2022/04/12 06:00:21;;;;;;;16.30;6.00;;;14.50;99.90;;;;;;5054464;28;20290;-63
2022/04/12 06:02:48;;;;;;;13.13;4.80;;;15.30;94.50;;;;;;5054399;28;20718;-63
2022/04/12 06:05:14;;;;;;;11.30;4.87;;;15.40;92.90;;;;;;5054159;28;20169;-63
2022/04/12 06:07:41;;;;;;;9.30;4.57;;;15.50;92.70;;;;;;5053892;28;20280;-63
2022/04/12 06:10:08;;;;;;;13.60;4.90;;;15.80;91.90;;;;;;5054052;28;20219;-65
2022/04/12 06:12:34;;;;;;;15.17;4.23;;;16.00;91.40;;;;;;5054519;28;20173;-63
2022/04/12 06:14:59;;;;;;;3.93;2.60;;;16.70;90.30;;;;;;5053798;28;20639;-64
2022/04/12 06:17:29;;;;;;;3.80;2.60;;;17.70;81.80;;;;;;5054393;28;20209;-65
2022/04/12 06:20:08;;;;;;;4.60;2.60;;;18.10;78.60;;;;;;5054438;28;20221;-64
2022/04/12 06:22:35;;;;;;;3.80;2.47;;;19.00;74.00;;;;;;5053847;28;20169;-64
2022/04/12 06:25:01;;;;;;;2.65;2.38;;;19.40;71.30;;;;;;5053511;28;20277;-64
2022/04/12 06:27:33;;;;;;;3.20;2.85;;;20.40;99.90;;;;;;5053915;28;20173;-65
2022/04/12 06:30:04;;;;;;;5.63;2.63;;;21.10;99.90;;;;;;5053924;28;20192;-66
2022/04/12 06:32:30;;;;;;;3.55;2.60;;;21.50;99.90;;;;;;5053913;28;20730;-67
2022/04/12 06:34:56;;;;;;;4.72;2.65;;;22.10;99.90;;;;;;5053981;28;20201;-65
2022/04/12 06:37:28;;;;;;;7.25;2.50;;;22.40;83.30;;;;;;5053534;28;20212;-65
2022/04/12 06:39:56;;;;;;;3.35;2.20;;;22.10;80.70;;;;;;5053187;28;20169;-66
2022/04/12 06:42:22;;;;;;;3.30;2.60;;;21.80;74.90;;;;;;5053521;28;20339;-65
2022/04/12 06:44:48;;;;;;;5.30;2.70;;;22.10;70.40;;;;;;5053273;28;20774;-66
2022/04/12 06:47:15;;;;;;;3.67;2.83;;;22.70;60.70;;;;;;5053548;28;20170;-65
2022/04/12 06:49:46;;;;;;;4.80;2.50;;;22.80;57.00;;;;;;5053632;28;20240;-64
2022/04/12 06:52:13;;;;;;;3.70;2.42;;;22.90;50.50;;;;;;5053304;28;20172;-65
2022/04/12 06:54:38;;;;;;;6.93;2.42;;;22.10;53.30;;;;;;5052917;28;20514;-66
2022/04/12 06:57:04;;;;;;;3.88;2.33;;;21.80;53.40;;;;;;5052339;28;20227;-66
2022/04/12 06:59:30;;;;;;;5.50;2.63;;;21.80;53.80;;;;;;5053091;28;20294;-65
2022/04/12 07:01:56;;;;;;;6.10;2.60;;;22.70;48.60;;;;;;5053611;28;20527;-66
2022/04/12 07:04:21;;;;;;;6.25;2.20;;;23.30;41.80;;;;;;5053206;28;20172;-65
2022/04/12 07:06:47;;;;;;;5.18;2.40;;;23.80;34.60;;;;;;5053505;28;20180;-67
2022/04/12 07:09:18;;;;;;;2.92;2.40;;;23.90;27.90;;;;;;5053692;28;20173;-66
2022/04/12 07:11:45;;;;;;;2.65;2.05;;;23.70;29.00;;;;;;5052804;28;20173;-65
2022/04/12 07:14:10;;;;;;;2.92;2.10;;;24.00;25.80;;;;;;5053375;28;20165;-66
2022/04/12 07:16:36;;;;;;;2.58;2.20;;;24.30;21.20;;;;;;5053543;28;20239;-65
2022/04/12 07:19:02;;;;;;;3.17;2.08;;;24.90;18.30;;;;;;5052898;28;20539;-66
2022/04/12 07:21:29;;;;;;;2.67;2.30;;;24.50;14.70;;;;;;5053355;28;20220;-64
2022/04/12 07:23:55;;;;;;;3.47;2.40;;;24.90;15.20;;;;;;5052946;28;20177;-65
2022/04/12 07:26:21;;;;;;;10.05;3.40;;;24.70;11.70;;;;;;5052347;28;20185;-65
2022/04/12 07:28:46;;;;;;;2.63;2.03;;;24.90;9.50;;;;;;5052761;28;20175;-65
2022/04/12 07:31:12;;;;;;;2.33;2.08;;;24.90;7.70;;;;;;5051174;28;20188;-65
2022/04/12 07:33:38;;;;;;;5.75;2.50;;;25.20;15.00;;;;;;5055222;28;20629;-65
2022/04/12 07:36:04;;;;;;;4.13;2.03;;;25.30;6.20;;;;;;5059276;28;20177;-64
2022/04/12 07:38:29;;;;;;;4.82;2.20;;;24.20;6.00;;;;;;5054645;28;20679;-66
2022/04/12 07:40:55;;;;;;;3.83;2.17;;;23.80;9.00;;;;;;5057522;28;20255;-65
2022/04/12 07:43:21;;;;;;;3.45;2.25;;;24.10;7.50;;;;;;5064152;28;20622;-64
2022/04/12 07:45:47;;;;;;;4.30;2.60;;;24.70;5.70;;;;;;5057302;28;20672;-65
2022/04/12 07:48:15;;;;;;;2.22;1.90;;;24.70;6.50;;;;;;5057270;28;20652;-65
2022/04/12 07:50:40;;;;;;;4.03;2.15;;;24.10;5.80;;;;;;5055043;28;20196;-65
2022/04/12 07:53:06;;;;;;;5.07;2.38;;;24.10;6.30;;;;;;5060718;28;20179;-65
2022/04/12 07:55:32;;;;;;;2.67;2.20;;;24.50;6.10;;;;;;5051469;28;20733;-65
2022/04/12 07:57:57;;;;;;;4.00;2.63;;;24.70;4.20;;;;;;5063657;28;20212;-65
2022/04/12 08:00:23;;;;;;;4.45;1.90;;;24.60;4.90;;;;;;5059768;28;20585;-66
2022/04/12 08:02:49;;;;;;;2.22;1.92;;;24.20;6.10;;;;;;5055433;28;20267;-65
2022/04/12 08:05:15;;;;;;;3.15;2.33;;;24.90;4.60;;;;;;5054555;28;20210;-65
2022/04/12 08:07:47;;;;;;;3.45;2.10;;;25.50;1.00;;;;;;5059199;28;20193;-65
2022/04/12 08:10:14;;;;;;;4.13;2.22;;;25.50;1.00;;;;;;5053341;28;20223;-65
2022/04/12 08:12:40;;;;;;;4.55;2.47;;;25.40;1.00;;;;;;5057308;28;20181;-67
2022/04/12 08:15:06;;;;;;;5.85;2.30;;;25.50;1.00;;;;;;5057808;28;20545;-67
2022/04/12 08:17:31;;;;;;;4.75;2.20;;;26.00;1.00;;;;;;5055184;28;20217;-67
2022/04/12 08:19:57;;;;;;;2.38;2.17;;;25.90;1.00;;;;;;5051539;28;20709;-67
2022/04/12 08:22:22;;;;;;;2.90;2.35;;;26.10;1.00;;;;;;5061495;28;20180;-65
2022/04/12 08:24:48;;;;;;;4.80;2.30;;;26.30;1.00;;;;;;5051819;28;20699;-68
2022/04/12 08:27:13;;;;;;;4.13;2.33;;;26.50;1.00;;;;;;5059221;28;20181;-66
2022/04/12 08:29:39;;;;;;;4.85;2.55;;;27.30;1.00;;;;;;5064397;28;20508;-66
2022/04/12 08:32:05;;;;;;;3.65;2.17;;;28.30;1.00;;;;;;5065951;28;20679;-67
2022/04/12 08:34:31;;;;;;;2.40;2.20;;;28.30;1.00;;;;;;5053812;28;20252;-66
2022/04/12 08:36:56;;;;;;;3.85;2.20;;;27.90;1.00;;;;;;5061148;28;20361;-66
2022/04/12 08:39:22;;;;;;;4.05;2.13;;;28.20;1.00;;;;;;5057313;28;20174;-67
2022/04/12 08:41:48;;;;;;;3.45;2.17;;;27.30;1.00;;;;;;5067990;28;20181;-65
2022/04/12 08:44:17;;;;;;;5.05;2.30;;;26.80;1.00;;;;;;5060830;28;20671;-66
2022/04/12 08:46:46;;;;;;;2.33;2.00;;;26.20;1.00;;;;;;5060323;28;20176;-66
2022/04/12 08:49:12;;;;;;;3.00;2.03;;;26.30;1.00;;;;;;5067750;28;20181;-67
2022/04/12 08:51:38;;;;;;;5.00;2.17;;;26.60;1.00;;;;;;5055431;28;20647;-65
2022/04/12 08:54:06;;;;;;;6.00;2.30;;;27.00;1.00;;;;;;5052458;28;20190;-68
2022/04/12 08:56:32;;;;;;;3.53;2.28;;;27.30;1.00;;;;;;5060792;28;20225;-66
2022/04/12 08:58:58;;;;;;;2.25;1.80;;;26.90;1.00;;;;;;5058080;28;20196;-65
2022/04/12 09:01:24;;;;;;;1.83;1.73;;;26.40;1.00;;;;;;5052175;28;20938;-66
2022/04/12 09:03:49;;;;;;;3.00;2.03;;;26.30;1.00;;;;;;5052659;28;20239;-66
2022/04/12 09:06:15;;;;;;;8.80;2.00;;;26.70;1.00;;;;;;5055629;28;20533;-65
2022/04/12 09:08:41;;;;;;;4.00;1.80;;;26.80;1.00;;;;;;5054133;28;20255;-66
2022/04/12 09:11:08;;;;;;;2.75;1.95;;;26.70;1.00;;;;;;5060199;28;20546;-65
2022/04/12 09:13:35;;;;;;;2.38;1.55;;;27.50;1.00;;;;;;5056944;28;20181;-65
2022/04/12 09:16:01;;;;;;;4.80;2.20;;;27.80;1.00;;;;;;5051326;28;20232;-65
2022/04/12 09:18:35;;;;;;;2.17;1.98;;;28.00;1.00;;;;;;5054861;28;20212;-65
2022/04/12 09:21:22;;;;;;;2.80;1.77;;;26.30;1.00;;;;;;5058343;28;20192;-65
2022/04/12 09:23:47;;;;;;;2.60;1.90;;;25.80;1.00;;;;;;5060858;28;20234;-64
2022/04/12 09:26:22;;;;;;;3.95;2.08;;;25.20;1.00;;;;;;5056313;28;20228;-64
2022/04/12 09:28:47;;;;;;;2.65;1.92;;;23.50;1.00;;;;;;5059070;28;20173;-65
2022/04/12 09:31:15;;;;;;;2.22;1.65;;;23.90;1.00;;;;;;5057260;28;20184;-66
2022/04/12 09:33:42;;;;;;;2.05;1.80;;;24.40;1.00;;;;;;5060913;28;20220;-65
2022/04/12 09:36:08;;;;;;;3.22;2.08;;;24.70;1.00;;;;;;5059908;28;20188;-64
2022/04/12 09:38:36;;;;;;;2.28;1.90;;;24.70;1.00;;;;;;5059843;28;20563;-66
2022/04/12 09:41:23;;;;;;;4.40;3.08;;;25.60;1.00;;;;;;5062984;28;20176;-65
2022/04/12 09:43:52;;;;;;;6.78;3.05;;;26.30;1.00;;;;;;5066655;28;20338;-65
2022/04/12 09:46:18;;;;;;;3.17;2.20;;;25.90;1.00;;;;;;5063393;28;20274;-64
2022/04/12 09:48:52;;;;;;;6.25;3.28;;;25.30;1.00;;;;;;5059294;28;20193;-64
2022/04/12 09:51:20;;;;;;;7.60;3.10;;;25.30;1.00;;;;;;5063740;28;20176;-65
2022/04/12 09:53:46;;;;;;;3.60;2.40;;;25.70;1.00;;;;;;5062021;28;20544;-66
2022/04/12 09:56:23;;;;;;;5.90;3.75;;;26.20;1.00;;;;;;5066710;28;20220;-66
2022/04/12 09:58:52;;;;;;;6.40;2.50;;;26.20;1.00;;;;;;5067706;28;20192;-65
2022/04/12 10:01:19;;;;;;;9.13;3.75;;;25.60;1.00;;;;;;5072345;28;20165;-66
2022/04/12 10:03:59;;;;;;;4.10;2.40;;;25.40;1.00;;;;;;5057571;28;20180;-63
2022/04/12 10:06:26;;;;;;;3.13;2.65;;;24.90;1.00;;;;;;5053618;28;20177;-65
2022/04/12 10:09:13;;;;;;;5.82;2.67;;;24.40;1.00;;;;;;5058284;28;20181;-65
2022/04/12 10:11:39;;;;;;;4.60;3.22;;;24.50;1.00;;;;;;5064799;28;20259;-65
2022/04/12 10:14:06;;;;;;;10.27;3.30;;;24.70;1.00;;;;;;5054046;28;20565;-64
2022/04/12 10:16:32;;;;;;;3.83;2.83;;;24.40;1.00;;;;;;5060346;28;20176;-65
2022/04/12 10:19:00;;;;;;;2.55;2.30;;;24.10;1.00;;;;;;5059108;28;20180;-65
2022/04/12 10:21:26;;;;;;;4.90;2.55;;;24.30;1.00;;;;;;5065766;28;20215;-65
2022/04/12 10:23:57;;;;;;;5.72;3.53;;;24.10;1.00;;;;;;5066773;28;20181;-66
2022/04/12 10:26:24;;;;;;;6.00;3.22;;;24.20;1.00;;;;;;5072079;28;20176;-64
2022/04/12 10:29:04;;;;;;;8.00;3.33;;;24.50;1.00;;;;;;5059174;28;20223;-65
2022/04/12 10:31:31;;;;;;;6.90;3.88;;;23.30;1.00;;;;;;5066510;28;20184;-65
2022/04/12 10:34:09;;;;;;;5.20;3.33;;;23.50;1.00;;;;;;5073235;28;20161;-64
2022/04/12 10:36:57;;;;;;;7.45;2.60;;;24.10;1.00;;;;;;5053532;28;20542;-65
2022/04/12 10:39:37;;;;;;;3.85;2.83;;;24.10;1.00;;;;;;5054037;28;20181;-64
2022/04/12 10:42:11;;;;;;;8.38;3.20;;;23.90;1.00;;;;;;5053917;28;20180;-65
2022/04/12 10:44:50;;;;;;;4.15;2.80;;;24.10;1.00;;;;;;5053209;28;20216;-65
2022/04/12 10:47:28;;;;;;;5.25;2.72;;;24.00;1.00;;;;;;5054156;28;20188;-65
2022/04/12 10:49:56;;;;;;;5.10;2.65;;;23.80;1.00;;;;;;5057207;28;20230;-66
2022/04/12 10:52:33;;;;;;;6.43;2.92;;;23.90;1.00;;;;;;5060461;28;20179;-64
2022/04/12 10:55:01;;;;;;;3.22;2.33;;;23.70;1.00;;;;;;5054552;28;20185;-65
2022/04/12 10:57:27;;;;;;;5.53;2.25;;;23.90;1.00;;;;;;5054228;28;20275;-65
2022/04/12 11:00:11;;;;;;;5.22;2.50;;;24.60;1.00;;;;;;5056283;28;20208;-65
2022/04/12 11:02:38;;;;;;;2.80;2.40;;;25.20;1.00;;;;;;5055575;28;20177;-64
2022/04/12 11:05:05;;;;;;;5.63;2.85;;;25.10;1.00;;;;;;5053414;28;20906;-64
2022/04/12 11:07:36;;;;;;;4.95;2.47;;;25.00;1.00;;;;;;5053971;28;20215;-64
2022/04/12 11:10:19;;;;;;;7.70;3.30;;;24.90;1.00;;;;;;5060208;28;20536;-64
2022/04/12 11:12:45;;;;;;;6.43;2.38;;;25.40;1.00;;;;;;5058375;28;20199;-64
2022/04/12 11:15:25;;;;;;;5.22;2.10;;;24.50;1.00;;;;;;5063120;28;20181;-64
2022/04/12 11:18:14;;;;;;;4.80;2.30;;;24.10;1.00;;;;;;5054725;28;20215;-65
2022/04/12 11:20:48;;;;;;;5.97;2.65;;;24.20;1.00;;;;;;5055372;28;20640;-64
2022/04/12 11:23:15;;;;;;;4.25;2.25;;;25.00;1.00;;;;;;5052722;28;20188;-64
2022/04/12 11:25:51;;;;;;;3.53;2.30;;;24.60;1.00;;;;;;5054499;28;20188;-64
2022/04/12 11:28:24;;;;;;;5.75;2.47;;;24.10;1.00;;;;;;5055957;28;20188;-64
2022/04/12 11:30:59;;;;;;;5.28;2.50;;;23.40;1.00;;;;;;5054192;28;20189;-63
2022/04/12 11:33:26;;;;;;;6.25;2.08;;;23.20;1.00;;;;;;5055434;28;20165;-65
2022/04/12 11:35:52;;;;;;;5.35;2.90;;;23.60;1.00;;;;;;5052526;28;20185;-64
2022/04/12 11:38:22;;;;;;;4.13;2.47;;;23.70;1.00;;;;;;5051537;28;20213;-63
2022/04/12 11:40:49;;;;;;;5.10;2.08;;;23.90;1.00;;;;;;5059935;28;20659;-64
2022/04/12 11:43:26;;;;;;;5.43;2.47;;;24.30;1.00;;;;;;5058279;28;20185;-64
2022/04/12 11:45:57;;;;;;;5.72;2.65;;;24.70;1.00;;;;;;5050248;28;20184;-64
2022/04/12 11:48:31;;;;;;;4.95;2.05;;;24.70;1.00;;;;;;5050564;28;20651;-65
2022/04/12 11:50:58;;;;;;;6.85;2.20;;;24.70;1.00;;;;;;5055472;28;20177;-64
2022/04/12 11:53:25;;;;;;;4.18;2.33;;;24.50;1.00;;;;;;5055159;28;20173;-63
2022/04/12 11:55:58;;;;;;;3.33;1.83;;;24.20;1.00;;;;;;5056799;28;20232;-64
2022/04/12 11:58:26;;;;;;;3.22;1.67;;;24.10;1.00;;;;;;5055557;28;20270;-64
2022/04/12 12:00:52;;;;;;;6.47;2.33;;;24.10;1.00;;;;;;5063008;28;20176;-65
2022/04/12 12:03:18;;;;;;;6.18;2.38;;;24.30;1.00;;;;;;5066062;28;20180;-65
2022/04/12 12:05:45;;;;;;;6.10;2.10;;;24.50;1.00;;;;;;5059128;28;20181;-63
2022/04/12 12:08:12;;;;;;;5.95;2.25;;;24.60;1.00;;;;;;5056489;28;20180;-65
2022/04/12 12:10:38;;;;;;;4.90;2.15;;;24.80;1.00;;;;;;5067183;28;20269;-64
2022/04/12 12:13:07;;;;;;;8.43;2.38;;;25.10;1.00;;;;;;5071771;28;20177;-65
2022/04/12 12:15:34;;;;;;;8.65;2.90;;;25.30;1.00;;;;;;5071090;28;20180;-63
2022/04/12 12:18:03;;;;;;;12.32;3.30;;;25.30;1.00;;;;;;5071317;28;20208;-64
2022/04/12 12:20:31;;;;;;;2.38;2.03;;;25.10;1.00;;;;;;5069154;28;20160;-65
2022/04/12 12:22:59;;;;;;;2.92;1.70;;;25.30;1.00;;;;;;5064488;28;20176;-64
2022/04/12 12:25:51;;;;;;;5.63;2.50;;;24.90;1.00;;;;;;5070569;28;20643;-64
2022/04/12 12:28:20;;;;;;;6.25;2.65;;;24.50;1.00;;;;;;5068924;28;20185;-65
2022/04/12 12:30:56;;;;;;;5.57;2.17;;;24.30;1.00;;;;;;5071773;28;20169;-64
2022/04/12 12:33:36;;;;;;;4.70;2.50;;;24.10;1.00;;;;;;5070215;28;20533;-64
2022/04/12 12:36:02;;;;;;;5.60;2.85;;;23.90;1.00;;;;;;5071750;28;20179;-62
2022/04/12 12:38:28;;;;;;;9.60;2.28;;;23.50;1.00;;;;;;5069004;28;20204;-65
2022/04/12 12:40:58;;;;;;;4.47;2.30;;;23.70;1.00;;;;;;5060925;28;20183;-64
2022/04/12 12:43:26;;;;;;;6.80;2.47;;;23.50;1.00;;;;;;5057119;28;20196;-63
2022/04/12 12:45:51;;;;;;;7.05;2.50;;;23.60;1.00;;;;;;5070941;28;20173;-64
2022/04/12 12:48:17;;;;;;;5.03;2.38;;;23.40;1.00;;;;;;5071668;28;20169;-64
2022/04/12 12:50:44;;;;;;;5.40;2.80;;;23.50;1.00;;;;;;5071068;28;20502;-64
2022/04/12 12:53:12;;;;;;;5.22;3.60;;;23.00;1.00;;;;;;5057822;28;20188;-65
2022/04/12 12:55:50;;;;;;;5.70;3.08;;;22.70;1.00;;;;;;5070828;28;20244;-64
2022/04/12 12:58:21;;;;;;;7.22;3.38;;;22.80;1.00;;;;;;5074674;28;20204;-64